KBKL/BKL METAR and TAF weather

Enter ICAO airport designator
Station Type Date Time Source
KBKL METAR 2023/06/01 07:53 UTC NOAA

KBKL 010753Z 16007KT 9SM CLR 19/11 A3008 RMK AO2 SLP185 T01890111


Station Type Date Time Source
KBKL Decoded METAR 2023/06/01 07:53 UTC NOAA

CLEVELAND BURKE LAKEFRONT, OH, United States (KBKL) 41-32N 81-40W 184M
Jun 01, 2023 - 03:53 AM EDT / 2023.06.01 0753 UTC
Wind: from the SSE (160 degrees) at 8 MPH (7 KT):0
Visibility: 9 mile(s):0
Sky conditions: clear
Temperature: 66.0 F (18.9 C)
Dew Point: 52.0 F (11.1 C)
Relative Humidity: 60%
Pressure (altimeter): 30.08 in. Hg (1018 hPa)
ob: KBKL 010753Z 16007KT 9SM CLR 19/11 A3008 RMK AO2 SLP185 T01890111
cycle: 8

Station Type Date Time Source
KBKL TAF UTC NOAA

Error!

Example: see airport list